Time;durP1;ratioP1;P1;durP2;ratioP2;P2;SDS_P1;SDS_P2;PMS_P1;PMS_P2;Temp;Humidity;BMP_temperature;BMP_pressure;BME280_temperature;BME280_humidity;BME280_pressure;Samples;Min_cycle;Max_cycle;Signal;HPM_P1;HPM_P2
2022/01/25 00:25:04;;;;;;;13.50;7.60;;;3.60;99.90;;;;;;5014419;28;20214;-91
2022/01/25 00:27:48;;;;;;;16.90;8.37;;;3.60;99.90;;;;;;5013975;28;20202;-93
2022/01/25 00:33:07;;;;;;;14.00;8.37;;;3.60;99.90;;;;;;5013745;28;20198;-93
2022/01/25 00:35:40;;;;;;;14.40;8.83;;;3.60;99.90;;;;;;5020180;28;20191;-90
2022/01/25 00:38:11;;;;;;;15.30;8.80;;;3.60;99.90;;;;;;5000070;28;20195;-93
2022/01/25 00:40:42;;;;;;;14.73;8.60;;;3.60;99.90;;;;;;5008078;28;20293;-94
2022/01/25 00:43:14;;;;;;;16.70;9.17;;;3.60;99.90;;;;;;5011815;28;20285;-93
2022/01/25 00:45:50;;;;;;;13.87;8.97;;;3.60;99.90;;;;;;5017025;28;20210;-92
2022/01/25 00:48:32;;;;;;;15.83;9.07;;;3.70;99.90;;;;;;5017601;28;20217;-93
2022/01/25 00:51:18;;;;;;;14.03;8.60;;;3.70;99.90;;;;;;5018692;28;20198;-93
2022/01/25 00:56:26;;;;;;;15.73;8.90;;;3.70;99.90;;;;;;5519867;22;20244;-93
2022/01/25 00:58:59;;;;;;;15.07;9.37;;;3.60;99.90;;;;;;5016393;28;20240;-93
2022/01/25 01:01:32;;;;;;;17.03;9.50;;;3.60;99.90;;;;;;5015551;28;20586;-92
2022/01/25 01:04:04;;;;;;;15.03;9.00;;;3.60;99.90;;;;;;5015170;28;20255;-92
2022/01/25 01:06:37;;;;;;;13.53;8.70;;;3.60;99.90;;;;;;5014121;28;20213;-93
2022/01/25 01:09:09;;;;;;;16.23;9.10;;;3.50;99.90;;;;;;5012639;28;20262;-92
2022/01/25 01:11:47;;;;;;;16.00;9.53;;;3.50;99.90;;;;;;4995531;28;20274;-92
2022/01/25 01:14:24;;;;;;;14.83;9.50;;;3.50;99.90;;;;;;5014750;28;20214;-92
2022/01/25 01:17:15;;;;;;;12.37;8.40;;;3.50;99.90;;;;;;5015071;28;20206;-93
2022/01/25 01:30:57;;;;;;;13.33;8.17;;;3.30;99.90;;;;;;4998128;28;20213;-93
2022/01/25 01:44:39;;;;;;;13.20;8.17;;;3.30;99.90;;;;;;5017260;28;20560;-93
2022/01/25 01:47:22;;;;;;;16.97;7.73;;;3.30;99.90;;;;;;5015786;28;20205;-93
2022/01/25 01:49:53;;;;;;;14.97;7.50;;;3.30;99.90;;;;;;5017024;28;20224;-93
2022/01/25 01:52:27;;;;;;;15.50;8.80;;;3.30;99.90;;;;;;5001647;28;20208;-93
2022/01/25 01:55:02;;;;;;;11.83;8.40;;;3.30;99.90;;;;;;5017400;28;20223;-94
2022/01/25 02:13:34;;;;;;;12.60;8.17;;;3.20;99.90;;;;;;5244264;22;20264;-94
2022/01/25 02:16:07;;;;;;;11.73;7.43;;;3.20;99.90;;;;;;5016163;28;20222;-92
2022/01/25 02:24:16;;;;;;;12.70;7.70;;;3.20;99.90;;;;;;5014649;28;20679;-93
2022/01/25 02:26:47;;;;;;;15.37;8.97;;;3.20;99.90;;;;;;5013793;28;20198;-93
2022/01/25 02:29:18;;;;;;;18.57;9.67;;;3.20;99.90;;;;;;5014781;28;20210;-93
2022/01/25 02:31:53;;;;;;;20.37;8.60;;;3.20;99.90;;;;;;5016435;28;20206;-92
2022/01/25 02:39:48;;;;;;;17.80;8.47;;;3.30;99.90;;;;;;5874220;22;20233;-94
2022/01/25 02:42:20;;;;;;;16.13;8.07;;;3.30;99.90;;;;;;5006016;28;20205;-95
2022/01/25 02:44:52;;;;;;;14.73;8.63;;;3.20;99.90;;;;;;5011749;28;20284;-94
2022/01/25 02:50:04;;;;;;;25.63;9.93;;;3.20;99.90;;;;;;5806393;22;20233;-92
2022/01/25 02:52:36;;;;;;;19.47;9.03;;;3.20;99.90;;;;;;5018012;28;20221;-93
2022/01/25 02:57:51;;;;;;;18.97;8.67;;;3.30;99.90;;;;;;5283329;22;20292;-94
2022/01/25 03:00:24;;;;;;;15.23;9.17;;;3.20;99.90;;;;;;5017924;28;20253;-93
2022/01/25 03:02:58;;;;;;;15.93;9.47;;;3.20;99.90;;;;;;5017205;28;20240;-93
2022/01/25 03:05:31;;;;;;;17.03;8.73;;;3.10;99.90;;;;;;5015255;28;20245;-90
2022/01/25 03:21:39;;;;;;;15.10;8.53;;;3.10;99.90;;;;;;6229596;22;2470811;-92
2022/01/25 03:24:11;;;;;;;19.87;9.20;;;3.10;99.90;;;;;;6336844;22;20173;-91
2022/01/25 03:26:42;;;;;;;18.20;10.23;;;3.10;99.90;;;;;;6309413;22;20177;-92
2022/01/25 03:29:14;;;;;;;18.00;9.93;;;3.10;99.90;;;;;;6336181;22;20197;-92
2022/01/25 03:31:46;;;;;;;18.10;10.87;;;3.20;99.90;;;;;;6334504;22;20192;-93
2022/01/25 03:34:17;;;;;;;17.57;10.23;;;3.10;99.90;;;;;;6342559;22;20166;-93
2022/01/25 03:36:51;;;;;;;18.67;10.60;;;3.00;99.90;;;;;;6335046;22;20228;-92
2022/01/25 03:39:25;;;;;;;17.87;12.53;;;3.00;99.90;;;;;;6337455;22;20186;-92
2022/01/25 03:41:58;;;;;;;21.23;11.50;;;3.10;99.90;;;;;;6336441;22;20508;-94
2022/01/25 03:44:30;;;;;;;25.63;11.13;;;3.10;99.90;;;;;;6336993;22;20174;-93
2022/01/25 03:47:06;;;;;;;24.07;11.37;;;3.20;99.90;;;;;;6339769;22;20189;-94
2022/01/25 03:49:49;;;;;;;22.43;10.50;;;3.10;99.90;;;;;;6337317;22;20233;-93
2022/01/25 03:52:29;;;;;;;21.87;11.00;;;3.10;99.90;;;;;;6339098;22;20216;-94
2022/01/25 03:55:00;;;;;;;24.13;12.70;;;3.10;99.90;;;;;;6337079;22;20192;-94
2022/01/25 03:57:31;;;;;;;19.70;11.63;;;3.10;99.90;;;;;;6333022;22;20181;-94
2022/01/25 04:00:03;;;;;;;25.33;11.43;;;3.10;99.90;;;;;;6337644;22;20190;-93
2022/01/25 04:02:37;;;;;;;23.80;12.03;;;3.10;99.90;;;;;;6334870;22;20170;-92
2022/01/25 04:05:19;;;;;;;22.47;11.37;;;3.10;99.90;;;;;;6340234;22;20181;-94
2022/01/25 04:07:52;;;;;;;22.33;11.80;;;3.10;99.90;;;;;;6341728;22;20180;-93
2022/01/25 04:10:28;;;;;;;20.50;11.20;;;3.20;99.90;;;;;;6336548;22;20190;-92
2022/01/25 04:13:00;;;;;;;21.93;11.83;;;3.20;99.90;;;;;;6326351;22;20176;-92
2022/01/25 04:15:32;;;;;;;23.27;11.10;;;3.10;99.90;;;;;;6337616;22;20199;-93
2022/01/25 04:18:21;;;;;;;24.80;11.13;;;3.10;99.90;;;;;;6341738;22;20162;-94
2022/01/25 04:21:04;;;;;;;24.40;12.40;;;3.20;99.90;;;;;;6340508;22;20218;-91
2022/01/25 04:26:06;;;;;;;24.23;10.67;;;3.20;99.90;;;;;;6273173;22;20180;-93
2022/01/25 04:28:37;;;;;;;18.70;11.40;;;3.20;99.90;;;;;;6273982;22;20176;-91
2022/01/25 04:31:08;;;;;;;19.73;12.03;;;3.20;99.90;;;;;;6274313;22;20194;-91
2022/01/25 04:33:44;;;;;;;16.57;9.87;;;3.20;99.90;;;;;;6273823;22;20160;-92
2022/01/25 04:36:49;;;;;;;19.33;11.20;;;3.20;99.90;;;;;;6274230;22;20166;-93
2022/01/25 04:50:55;;;;;;;20.73;11.40;;;3.20;99.90;;;;;;6273549;22;20196;-93
2022/01/25 04:53:43;;;;;;;23.33;11.50;;;3.20;99.90;;;;;;6264844;22;20194;-94
2022/01/25 04:56:21;;;;;;;22.23;10.80;;;3.20;99.90;;;;;;6271425;22;20214;-93
2022/01/25 04:59:01;;;;;;;24.97;11.47;;;3.20;99.90;;;;;;6272473;22;20172;-94
2022/01/25 05:01:33;;;;;;;18.40;10.77;;;3.20;99.90;;;;;;6270459;23;20179;-92
2022/01/25 05:04:09;;;;;;;31.13;12.13;;;3.20;99.90;;;;;;6267252;23;20164;-92
2022/01/25 05:06:42;;;;;;;22.87;11.10;;;3.20;99.90;;;;;;6265685;22;20194;-93
2022/01/25 05:09:14;;;;;;;24.67;11.30;;;3.10;99.90;;;;;;6266918;23;20566;-92
2022/01/25 05:11:48;;;;;;;17.93;11.30;;;3.10;99.90;;;;;;6272482;22;20167;-92
2022/01/25 05:14:24;;;;;;;19.83;10.57;;;3.10;99.90;;;;;;6270522;22;20155;-92
2022/01/25 05:16:59;;;;;;;20.17;12.40;;;3.20;99.90;;;;;;6268179;22;20178;-92
2022/01/25 05:22:26;;;;;;;22.90;11.30;;;3.10;99.90;;;;;;6267260;22;20208;-92
2022/01/25 05:24:57;;;;;;;28.80;12.23;;;3.10;99.90;;;;;;6268129;22;20190;-93
2022/01/25 05:27:30;;;;;;;26.90;12.10;;;3.10;99.90;;;;;;6267953;22;20356;-92
2022/01/25 05:30:03;;;;;;;26.50;11.70;;;3.20;99.90;;;;;;6268712;22;20238;-93
2022/01/25 05:32:35;;;;;;;23.23;11.30;;;3.20;99.90;;;;;;6268740;22;20217;-93
2022/01/25 05:35:07;;;;;;;24.97;12.73;;;3.20;99.90;;;;;;6256673;22;20172;-93
2022/01/25 05:37:41;;;;;;;19.93;11.73;;;3.20;99.90;;;;;;6253161;22;20198;-92
2022/01/25 05:40:18;;;;;;;20.17;11.33;;;3.10;99.90;;;;;;6232386;23;20171;-94
2022/01/25 05:43:53;;;;;;;27.83;11.63;;;3.00;99.90;;;;;;6254972;22;20171;-93
2022/01/25 05:45:58;;;;;;;32.43;11.33;;;3.10;99.90;;;;;;6259418;23;20186;-93
2022/01/25 05:48:30;;;;;;;26.93;11.30;;;3.10;99.90;;;;;;6254674;22;20167;-93
2022/01/25 05:51:01;;;;;;;21.07;10.97;;;3.10;99.90;;;;;;6256335;22;20195;-93
2022/01/25 05:53:33;;;;;;;25.00;11.60;;;3.00;99.90;;;;;;6236242;23;20552;-93
2022/01/25 05:56:06;;;;;;;22.80;12.10;;;3.10;99.90;;;;;;6273064;22;20159;-93
2022/01/25 05:58:37;;;;;;;23.90;13.30;;;3.10;99.90;;;;;;6271462;22;20172;-92
2022/01/25 06:01:11;;;;;;;22.73;12.33;;;3.10;99.90;;;;;;6266150;23;20611;-93
2022/01/25 06:03:44;;;;;;;24.17;12.00;;;3.10;99.90;;;;;;6256299;23;20183;-93
2022/01/25 06:06:16;;;;;;;16.90;10.33;;;3.10;99.90;;;;;;6254964;23;20657;-93
2022/01/25 06:08:47;;;;;;;18.33;8.70;;;3.10;99.90;;;;;;6252600;22;20638;-92
2022/01/25 06:11:20;;;;;;;17.67;8.43;;;3.10;99.90;;;;;;6252762;22;20199;-92
2022/01/25 06:13:51;;;;;;;25.50;8.80;;;3.10;99.90;;;;;;6253280;22;20183;-92
2022/01/25 06:16:28;;;;;;;17.47;9.27;;;3.00;99.90;;;;;;6252907;22;20178;-92
2022/01/25 06:18:59;;;;;;;18.37;9.27;;;3.00;99.90;;;;;;6252734;22;20195;-93
2022/01/25 06:21:31;;;;;;;47.13;9.97;;;3.00;99.90;;;;;;6269829;22;20178;-93
2022/01/25 06:24:01;;;;;;;39.47;8.90;;;2.90;99.90;;;;;;6285466;22;20174;-93
2022/01/25 06:26:33;;;;;;;24.40;8.77;;;2.90;99.90;;;;;;6282929;22;20163;-93
2022/01/25 06:29:04;;;;;;;16.10;9.00;;;2.80;99.90;;;;;;6282142;22;20167;-93
2022/01/25 06:31:40;;;;;;;21.23;9.10;;;2.70;99.90;;;;;;6282682;22;20230;-92
2022/01/25 06:34:12;;;;;;;26.07;10.00;;;2.80;99.90;;;;;;6287235;22;20175;-92
2022/01/25 06:36:43;;;;;;;27.57;9.93;;;2.80;99.90;;;;;;6282301;22;20173;-92
2022/01/25 06:39:14;;;;;;;34.60;10.07;;;2.80;99.90;;;;;;6289275;22;20294;-93
2022/01/25 06:41:45;;;;;;;24.00;9.00;;;2.80;99.90;;;;;;6292097;22;20505;-93
2022/01/25 06:44:18;;;;;;;26.30;9.87;;;2.90;99.90;;;;;;6295099;22;20171;-90
2022/01/25 06:46:51;;;;;;;26.63;9.67;;;2.90;99.90;;;;;;6299576;22;20167;-94
2022/01/25 06:49:23;;;;;;;16.00;9.70;;;2.80;99.90;;;;;;6303353;22;20168;-93
2022/01/25 06:52:12;;;;;;;24.23;9.77;;;2.90;99.90;;;;;;6280314;22;20211;-93
2022/01/25 06:54:43;;;;;;;29.90;11.67;;;2.90;99.90;;;;;;6301503;22;20178;-90
2022/01/25 06:57:15;;;;;;;25.80;9.77;;;3.00;99.90;;;;;;6302924;22;20178;-93
2022/01/25 06:59:46;;;;;;;26.60;10.43;;;2.90;99.90;;;;;;6266618;22;20159;-94
2022/01/25 07:02:18;;;;;;;20.57;11.37;;;2.90;99.90;;;;;;6286110;22;20171;-94
2022/01/25 07:04:49;;;;;;;34.03;11.17;;;2.90;99.90;;;;;;6286284;22;20163;-93
2022/01/25 07:07:21;;;;;;;34.67;13.50;;;2.90;99.90;;;;;;6282663;22;20167;-93
2022/01/25 07:09:52;;;;;;;28.00;11.90;;;2.90;99.90;;;;;;6282796;22;20186;-94
2022/01/25 07:12:23;;;;;;;26.33;12.77;;;3.00;99.90;;;;;;6284368;22;20282;-93
2022/01/25 07:14:54;;;;;;;21.00;12.23;;;3.00;99.90;;;;;;6282874;22;20686;-93
2022/01/25 07:17:28;;;;;;;19.97;11.53;;;3.00;99.90;;;;;;6284188;22;20174;-93
2022/01/25 07:20:00;;;;;;;20.73;11.70;;;3.00;99.90;;;;;;6285339;22;20272;-93
2022/01/25 07:22:31;;;;;;;20.93;11.80;;;3.00;99.90;;;;;;6282871;22;20189;-92
2022/01/25 07:25:03;;;;;;;26.67;13.77;;;3.00;99.90;;;;;;6283052;22;20167;-92
2022/01/25 07:27:34;;;;;;;28.47;13.90;;;3.00;99.90;;;;;;6284621;22;20174;-92
2022/01/25 07:30:08;;;;;;;32.33;14.27;;;3.10;99.90;;;;;;6285157;22;20170;-91
2022/01/25 07:32:42;;;;;;;30.63;14.07;;;3.00;99.90;;;;;;6283209;22;20199;-91
2022/01/25 07:35:15;;;;;;;30.70;13.73;;;3.00;99.90;;;;;;6284323;22;20166;-92
2022/01/25 07:37:57;;;;;;;28.30;13.90;;;3.00;99.90;;;;;;6284058;22;20226;-92
2022/01/25 07:40:36;;;;;;;27.50;14.50;;;3.00;99.90;;;;;;6283041;22;20178;-93
2022/01/25 07:43:07;;;;;;;27.73;15.13;;;3.00;99.90;;;;;;6281209;22;20174;-92
2022/01/25 07:45:50;;;;;;;26.20;14.17;;;3.10;99.90;;;;;;6281686;22;20559;-93
2022/01/25 07:48:24;;;;;;;24.50;13.77;;;3.10;99.90;;;;;;6280174;22;20175;-92
2022/01/25 07:51:11;;;;;;;25.90;13.70;;;3.10;99.90;;;;;;6281505;22;20668;-93
2022/01/25 07:53:43;;;;;;;27.53;14.97;;;3.00;99.90;;;;;;6286706;22;20187;-92
2022/01/25 07:56:15;;;;;;;26.30;15.37;;;3.10;99.90;;;;;;6287422;22;20182;-92
2022/01/25 07:58:47;;;;;;;28.17;15.00;;;3.10;99.90;;;;;;6283687;22;20546;-91
2022/01/25 08:01:19;;;;;;;27.13;14.83;;;3.10;99.90;;;;;;6282754;22;20167;-92
2022/01/25 08:03:52;;;;;;;26.00;14.83;;;3.10;99.90;;;;;;6283764;22;20649;-93
2022/01/25 08:06:35;;;;;;;25.67;14.57;;;3.10;99.90;;;;;;6281880;22;20167;-92
2022/01/25 08:09:19;;;;;;;27.73;15.40;;;3.00;99.90;;;;;;6250829;22;20175;-93
2022/01/25 08:11:55;;;;;;;26.33;15.40;;;3.10;99.90;;;;;;6283355;22;20244;-93
2022/01/25 08:14:58;;;;;;;30.70;15.30;;;3.20;99.90;;;;;;6282297;22;20182;-93
2022/01/25 08:17:46;;;;;;;31.17;14.93;;;3.10;99.90;;;;;;6281563;22;20195;-93
2022/01/25 08:20:38;;;;;;;32.53;16.53;;;3.20;99.90;;;;;;6249758;22;20246;-93
2022/01/25 08:23:38;;;;;;;27.50;15.40;;;3.10;99.90;;;;;;6160082;23;20186;-92
2022/01/25 08:26:22;;;;;;;32.90;16.43;;;3.20;99.90;;;;;;6264365;22;20178;-94
2022/01/25 08:29:21;;;;;;;30.70;15.00;;;3.20;99.90;;;;;;6189354;23;20177;-93
2022/01/25 08:32:06;;;;;;;35.13;16.77;;;3.10;99.90;;;;;;6175423;23;20212;-93
2022/01/25 08:34:50;;;;;;;38.33;15.67;;;3.10;99.90;;;;;;6164687;23;20174;-94
2022/01/25 08:37:39;;;;;;;34.27;15.57;;;3.10;99.90;;;;;;6153073;23;20212;-93
2022/01/25 08:40:24;;;;;;;39.10;14.43;;;3.10;99.90;;;;;;6189295;23;20173;-93
2022/01/25 08:43:17;;;;;;;31.43;12.73;;;3.00;99.90;;;;;;6167198;23;20479;-93
2022/01/25 08:45:48;;;;;;;44.83;12.27;;;3.00;99.90;;;;;;6189726;23;20177;-93
2022/01/25 08:48:23;;;;;;;32.60;13.07;;;3.00;99.90;;;;;;6180159;23;20618;-92
2022/01/25 08:51:04;;;;;;;49.57;14.53;;;2.90;99.90;;;;;;6189347;23;20308;-93
2022/01/25 08:54:02;;;;;;;33.30;13.37;;;3.00;99.90;;;;;;6072494;23;20266;-93
2022/01/25 08:56:41;;;;;;;26.23;13.17;;;2.90;99.90;;;;;;6071662;23;20184;-93
2022/01/25 08:59:36;;;;;;;36.13;12.70;;;2.90;99.90;;;;;;6066823;23;20244;-93
2022/01/25 09:02:08;;;;;;;40.30;13.37;;;2.90;99.90;;;;;;6072364;23;20183;-93
2022/01/25 09:04:38;;;;;;;37.23;11.63;;;2.90;99.90;;;;;;6140152;23;20213;-93
2022/01/25 09:07:10;;;;;;;49.77;13.23;;;2.80;99.90;;;;;;6151920;23;20178;-94
2022/01/25 09:09:44;;;;;;;42.47;12.50;;;2.80;99.90;;;;;;6152060;23;20202;-94
2022/01/25 09:12:15;;;;;;;63.10;12.37;;;2.80;99.90;;;;;;6144610;23;20210;-93
2022/01/25 09:14:46;;;;;;;59.47;13.60;;;2.80;99.90;;;;;;6133088;23;20258;-93
2022/01/25 09:17:17;;;;;;;42.83;11.57;;;2.80;99.90;;;;;;6142900;23;20178;-93
2022/01/25 09:19:48;;;;;;;43.77;11.67;;;2.80;99.90;;;;;;6132866;23;20190;-94
2022/01/25 09:22:19;;;;;;;39.33;12.63;;;2.80;99.90;;;;;;6131459;23;20191;-93
2022/01/25 09:24:51;;;;;;;44.70;12.97;;;2.80;99.90;;;;;;6135462;23;20182;-93
2022/01/25 09:27:23;;;;;;;49.03;12.00;;;2.70;99.90;;;;;;6118738;23;20210;-93
2022/01/25 09:29:54;;;;;;;24.73;12.57;;;2.80;99.90;;;;;;6224356;22;20190;-92
2022/01/25 09:32:25;;;;;;;35.23;11.67;;;2.80;99.90;;;;;;6297250;22;20202;-93
2022/01/25 09:34:56;;;;;;;74.23;13.10;;;2.70;99.90;;;;;;6295019;22;20198;-93
2022/01/25 09:37:27;;;;;;;26.50;11.87;;;2.80;99.90;;;;;;6294904;22;20188;-93
2022/01/25 09:40:12;;;;;;;37.97;12.40;;;2.60;99.90;;;;;;6263066;22;20175;-93
2022/01/25 09:42:44;;;;;;;30.27;10.77;;;2.60;99.90;;;;;;6284343;22;20185;-92
2022/01/25 09:45:18;;;;;;;28.33;11.57;;;2.60;99.90;;;;;;6283999;22;20166;-93
2022/01/25 09:47:51;;;;;;;67.90;11.40;;;2.60;99.90;;;;;;6287205;22;20177;-93
2022/01/25 09:50:23;;;;;;;47.73;11.53;;;2.70;99.90;;;;;;6283958;22;20340;-93
2022/01/25 09:52:55;;;;;;;37.97;11.50;;;2.60;99.90;;;;;;6290235;22;20206;-92
2022/01/25 09:55:29;;;;;;;26.70;9.90;;;2.60;99.90;;;;;;6284181;22;20246;-91
2022/01/25 09:57:59;;;;;;;26.20;9.37;;;2.60;99.90;;;;;;6282942;22;20175;-93
2022/01/25 10:00:34;;;;;;;78.90;12.60;;;2.50;99.90;;;;;;6282234;22;20228;-93
2022/01/25 10:03:11;;;;;;;41.17;9.20;;;2.40;99.90;;;;;;6287601;22;20163;-94
2022/01/25 10:05:45;;;;;;;50.40;10.27;;;2.40;99.90;;;;;;6294877;22;20185;-92
2022/01/25 10:08:20;;;;;;;54.37;9.30;;;2.50;99.90;;;;;;6297355;22;20233;-95
2022/01/25 10:10:55;;;;;;;26.37;9.10;;;2.50;99.90;;;;;;6299054;22;20159;-93
2022/01/25 10:13:28;;;;;;;36.10;9.63;;;2.50;99.90;;;;;;6298358;22;20179;-93
2022/01/25 10:16:04;;;;;;;33.00;9.17;;;2.50;99.90;;;;;;6298661;22;20210;-93
2022/01/25 10:18:44;;;;;;;60.23;9.13;;;2.50;99.90;;;;;;6296721;22;20205;-93
2022/01/25 10:21:19;;;;;;;33.13;8.67;;;2.50;99.90;;;;;;6287627;22;20210;-93
2022/01/25 10:24:08;;;;;;;81.00;9.40;;;2.50;99.90;;;;;;6257792;22;20442;-94
2022/01/25 10:26:50;;;;;;;36.33;8.37;;;2.40;99.90;;;;;;6281285;22;20222;-93
2022/01/25 10:29:24;;;;;;;21.63;8.40;;;2.40;99.90;;;;;;6281602;22;20185;-93
2022/01/25 10:31:58;;;;;;;17.60;8.17;;;2.30;99.90;;;;;;6281970;22;20205;-93
2022/01/25 10:34:32;;;;;;;19.27;9.43;;;2.30;99.90;;;;;;6283003;22;20170;-94
2022/01/25 10:37:09;;;;;;;22.03;9.17;;;2.30;99.90;;;;;;6281583;22;20186;-93
2022/01/25 10:39:43;;;;;;;20.83;9.80;;;2.40;99.90;;;;;;6282621;22;20190;-93
2022/01/25 10:42:24;;;;;;;29.20;9.93;;;2.50;99.90;;;;;;6255620;22;20274;-93
2022/01/25 10:44:57;;;;;;;21.37;9.27;;;2.50;99.90;;;;;;6281906;22;20171;-93
2022/01/25 10:47:41;;;;;;;22.50;10.43;;;2.50;99.90;;;;;;6281175;22;20179;-93
2022/01/25 10:50:16;;;;;;;20.67;9.40;;;2.50;99.90;;;;;;6282174;22;20201;-94
2022/01/25 10:52:48;;;;;;;17.80;9.50;;;2.50;99.90;;;;;;6281978;22;20198;-93
2022/01/25 10:55:19;;;;;;;18.93;9.53;;;2.50;99.90;;;;;;6282571;22;20174;-93
2022/01/25 10:57:59;;;;;;;18.97;9.40;;;2.60;99.90;;;;;;6282491;22;20198;-94
2022/01/25 11:00:35;;;;;;;19.07;10.07;;;2.60;99.90;;;;;;6282724;22;20231;-89
2022/01/25 11:03:06;;;;;;;19.87;10.27;;;2.60;99.90;;;;;;6292926;22;20170;-93
2022/01/25 11:05:43;;;;;;;18.57;9.80;;;2.60;99.90;;;;;;6302966;22;20194;-93
2022/01/25 11:08:37;;;;;;;22.43;11.00;;;2.50;99.90;;;;;;6301767;22;20502;-93
2022/01/25 11:11:11;;;;;;;19.80;10.67;;;2.50;99.90;;;;;;6288196;22;20170;-93
2022/01/25 11:13:48;;;;;;;22.63;12.50;;;2.60;99.90;;;;;;6296943;22;20206;-93
2022/01/25 11:16:19;;;;;;;23.50;11.87;;;2.60;99.90;;;;;;6288412;22;20170;-93
2022/01/25 11:18:50;;;;;;;21.70;11.53;;;2.60;99.90;;;;;;6283616;22;20213;-93
2022/01/25 11:21:23;;;;;;;23.07;11.93;;;2.60;99.90;;;;;;6265334;22;20183;-93
2022/01/25 11:23:55;;;;;;;23.60;12.43;;;2.60;99.90;;;;;;6292038;22;20161;-92
2022/01/25 11:26:26;;;;;;;23.27;12.97;;;2.60;99.90;;;;;;6301205;22;20155;-93
2022/01/25 11:28:59;;;;;;;24.23;13.27;;;2.70;99.90;;;;;;6299012;22;20180;-94
2022/01/25 11:31:38;;;;;;;27.70;13.10;;;2.80;99.90;;;;;;6294405;22;20198;-93
2022/01/25 11:34:13;;;;;;;25.67;13.80;;;2.80;99.90;;;;;;6291466;22;20267;-93
2022/01/25 11:36:47;;;;;;;22.93;13.70;;;2.80;99.90;;;;;;6283177;22;20651;-93
2022/01/25 11:39:21;;;;;;;25.47;14.10;;;2.80;99.90;;;;;;6285009;22;20175;-92
2022/01/25 11:41:53;;;;;;;25.27;14.30;;;2.80;99.90;;;;;;6284581;22;20605;-93
2022/01/25 11:44:27;;;;;;;29.23;15.97;;;2.70;99.90;;;;;;6283580;22;20183;-93
2022/01/25 11:47:01;;;;;;;28.97;15.00;;;2.70;99.90;;;;;;6283006;22;20244;-93
2022/01/25 11:49:31;;;;;;;28.33;16.00;;;2.70;99.90;;;;;;6283493;22;20221;-93
2022/01/25 11:52:13;;;;;;;27.93;16.40;;;2.60;99.90;;;;;;6282519;22;20259;-93
2022/01/25 11:54:46;;;;;;;29.97;16.47;;;2.70;99.90;;;;;;6257236;22;20234;-93
2022/01/25 11:57:21;;;;;;;29.83;15.63;;;2.70;99.90;;;;;;6282897;22;20237;-93
2022/01/25 12:00:00;;;;;;;28.37;16.27;;;2.60;99.90;;;;;;6258244;22;20170;-94
2022/01/25 12:02:41;;;;;;;30.10;16.13;;;2.70;99.90;;;;;;6287177;22;20193;-94
2022/01/25 12:05:15;;;;;;;26.20;15.90;;;2.70;99.90;;;;;;6287055;22;20202;-94
2022/01/25 12:08:07;;;;;;;30.03;16.37;;;2.70;99.90;;;;;;6287385;22;20179;-94
2022/01/25 12:10:41;;;;;;;31.13;16.57;;;2.70;99.90;;;;;;6301766;22;20193;-94
2022/01/25 12:13:15;;;;;;;31.03;16.47;;;2.70;99.90;;;;;;6304005;22;20195;-94
2022/01/25 12:15:48;;;;;;;32.27;17.07;;;2.60;99.90;;;;;;6304276;22;20178;-93
2022/01/25 12:18:55;;;;;;;39.23;18.40;;;2.60;99.90;;;;;;6303522;22;20172;-94
2022/01/25 12:21:59;;;;;;;32.77;17.27;;;2.60;99.90;;;;;;6296369;22;20183;-95
2022/01/25 12:24:37;;;;;;;32.13;16.20;;;2.60;99.90;;;;;;6283838;22;20170;-94
2022/01/25 12:27:15;;;;;;;32.63;16.93;;;2.60;99.90;;;;;;6283284;22;20536;-94
2022/01/25 12:29:48;;;;;;;29.63;16.77;;;2.50;99.90;;;;;;6284201;22;20195;-94
2022/01/25 12:32:25;;;;;;;32.77;16.10;;;2.60;99.90;;;;;;6283272;22;20242;-93
2022/01/25 12:35:06;;;;;;;27.47;15.03;;;2.60;99.90;;;;;;6283163;22;20202;-94
2022/01/25 12:38:01;;;;;;;31.70;16.30;;;2.60;99.90;;;;;;6282223;22;20174;-93
2022/01/25 12:40:35;;;;;;;32.97;16.63;;;2.60;99.90;;;;;;6282642;22;20201;-93
2022/01/25 12:43:10;;;;;;;29.20;15.47;;;2.70;99.90;;;;;;6285792;22;20195;-92
2022/01/25 12:45:47;;;;;;;31.10;16.40;;;2.70;99.90;;;;;;6283793;22;20213;-93
2022/01/25 12:48:21;;;;;;;25.47;15.17;;;2.70;99.90;;;;;;6283562;22;20166;-93
2022/01/25 12:50:54;;;;;;;28.47;16.00;;;2.80;99.90;;;;;;6282378;22;20190;-93
2022/01/25 12:53:28;;;;;;;23.90;14.23;;;2.70;99.90;;;;;;6282964;22;20235;-94
2022/01/25 12:56:02;;;;;;;27.13;14.77;;;2.80;99.90;;;;;;6282668;22;20224;-93
2022/01/25 12:58:34;;;;;;;26.73;14.60;;;2.80;99.90;;;;;;6283305;22;20170;-93
2022/01/25 13:01:07;;;;;;;19.30;12.47;;;2.80;99.90;;;;;;6283798;22;20175;-93
2022/01/25 13:03:46;;;;;;;20.63;13.27;;;2.70;99.90;;;;;;6281943;22;20197;-94
2022/01/25 13:06:19;;;;;;;21.67;13.70;;;2.70;99.90;;;;;;6281530;22;20182;-93
2022/01/25 13:08:56;;;;;;;22.27;13.17;;;2.70;99.90;;;;;;6282283;22;20163;-93
2022/01/25 13:11:41;;;;;;;23.00;13.07;;;2.70;99.90;;;;;;6281962;22;20178;-93
2022/01/25 13:14:31;;;;;;;22.53;13.80;;;2.60;99.90;;;;;;6282807;22;20196;-94
2022/01/25 13:17:04;;;;;;;24.67;13.97;;;2.60;99.90;;;;;;6281273;22;20178;-94
2022/01/25 13:19:42;;;;;;;19.40;12.73;;;2.60;99.90;;;;;;6283339;22;20229;-94
2022/01/25 13:22:17;;;;;;;20.83;12.30;;;2.50;99.90;;;;;;6298822;22;20217;-92
2022/01/25 13:24:57;;;;;;;22.93;12.50;;;2.50;99.90;;;;;;6298909;22;20497;-93
2022/01/25 13:27:32;;;;;;;19.80;11.73;;;2.50;99.90;;;;;;6267371;22;20215;-92
2022/01/25 13:32:54;;;;;;;24.57;12.07;;;2.40;99.90;;;;;;6252569;23;20182;-93
2022/01/25 13:35:31;;;;;;;21.37;11.80;;;2.50;99.90;;;;;;6252783;22;20246;-93
2022/01/25 13:38:09;;;;;;;21.83;11.20;;;2.50;99.90;;;;;;6253056;22;20164;-94
2022/01/25 13:40:49;;;;;;;21.30;11.00;;;2.50;99.90;;;;;;6252997;23;20171;-93
2022/01/25 13:45:43;;;;;;;23.23;12.00;;;2.50;99.90;;;;;;6262585;23;20164;-93
2022/01/25 13:46:25;;;;;;;21.13;10.93;;;2.40;99.90;;;;;;6272855;22;20223;-96
2022/01/25 13:48:58;;;;;;;19.47;10.27;;;2.40;99.90;;;;;;6272764;23;20180;-93
2022/01/25 13:51:39;;;;;;;19.33;11.10;;;2.40;99.90;;;;;;6266203;22;20166;-94
2022/01/25 13:54:13;;;;;;;19.33;11.03;;;2.40;99.90;;;;;;6255266;22;20207;-93
2022/01/25 13:56:45;;;;;;;19.93;10.53;;;2.40;99.90;;;;;;6256924;22;20257;-94
2022/01/25 13:59:21;;;;;;;18.53;10.80;;;2.40;99.90;;;;;;6228971;23;20179;-93
2022/01/25 14:01:53;;;;;;;17.53;9.90;;;2.40;99.90;;;;;;6252770;22;20550;-94
2022/01/25 14:04:28;;;;;;;22.87;10.50;;;2.30;99.90;;;;;;6251901;22;20186;-93
2022/01/25 14:07:03;;;;;;;16.47;9.70;;;2.30;99.90;;;;;;6252083;23;20173;-93
2022/01/25 14:09:39;;;;;;;16.57;9.93;;;2.20;99.90;;;;;;6250543;23;20171;-93
2022/01/25 14:23:24;;;;;;;23.97;10.00;;;1.90;99.90;;;;;;6252151;22;20172;-93
2022/01/25 14:26:03;;;;;;;23.17;9.60;;;1.90;99.90;;;;;;6256959;22;20200;-94
2022/01/25 14:28:40;;;;;;;17.83;9.03;;;2.00;99.90;;;;;;6282779;22;20201;-94
2022/01/25 14:31:18;;;;;;;20.93;9.50;;;2.00;99.90;;;;;;6256782;22;20174;-94
2022/01/25 14:33:54;;;;;;;16.13;8.87;;;2.00;99.90;;;;;;6282672;22;20179;-94
2022/01/25 14:36:27;;;;;;;19.70;9.60;;;2.00;99.90;;;;;;6282464;22;20190;-95
2022/01/25 14:39:02;;;;;;;18.80;9.57;;;2.10;99.90;;;;;;6282547;22;20231;-94
2022/01/25 14:41:36;;;;;;;21.90;8.77;;;2.10;99.90;;;;;;6282252;22;20163;-94
2022/01/25 14:44:10;;;;;;;25.03;9.33;;;2.10;99.90;;;;;;6257082;22;20215;-94
2022/01/25 14:46:46;;;;;;;37.40;9.13;;;2.00;99.90;;;;;;6282769;22;20198;-94
2022/01/25 14:49:22;;;;;;;25.40;9.10;;;2.00;99.90;;;;;;6282706;22;20167;-94
2022/01/25 14:51:58;;;;;;;36.70;9.73;;;2.00;99.90;;;;;;6283572;22;20242;-94
2022/01/25 14:54:33;;;;;;;45.03;9.30;;;2.00;99.90;;;;;;6281151;22;20205;-94
2022/01/25 14:57:08;;;;;;;64.67;9.53;;;1.90;99.90;;;;;;6256378;22;20214;-94
2022/01/25 14:59:46;;;;;;;25.97;9.07;;;1.90;99.90;;;;;;6282420;22;20174;-94
2022/01/25 15:02:20;;;;;;;19.63;9.33;;;1.90;99.90;;;;;;6282463;22;20590;-93
2022/01/25 15:04:54;;;;;;;18.40;10.33;;;1.90;99.90;;;;;;6284702;22;20175;-94
2022/01/25 15:07:30;;;;;;;24.97;9.97;;;1.80;99.90;;;;;;6281328;22;20197;-94
2022/01/25 15:10:07;;;;;;;30.50;8.97;;;1.80;99.90;;;;;;6297165;22;20288;-94
2022/01/25 15:12:43;;;;;;;19.60;8.87;;;1.80;99.90;;;;;;6296434;22;20205;-94
2022/01/25 15:15:19;;;;;;;30.23;10.10;;;1.80;99.90;;;;;;6301261;22;20202;-93
2022/01/25 15:17:52;;;;;;;21.77;9.30;;;1.90;99.90;;;;;;6260899;22;20203;-92
2022/01/25 15:20:23;;;;;;;42.20;10.07;;;1.90;99.90;;;;;;6270486;22;20156;-93
2022/01/25 15:22:55;;;;;;;32.07;8.93;;;2.00;99.90;;;;;;6266416;22;20226;-93
2022/01/25 15:25:30;;;;;;;36.10;11.00;;;2.00;99.90;;;;;;6264340;22;20233;-93
2022/01/25 15:28:03;;;;;;;30.20;10.00;;;1.90;99.90;;;;;;6262219;22;20579;-94
2022/01/25 15:30:35;;;;;;;26.97;9.67;;;2.00;99.90;;;;;;6267098;22;20175;-93
2022/01/25 15:33:07;;;;;;;21.00;9.93;;;1.90;99.90;;;;;;6264467;22;20178;-93